createdAt,value
2019-01-28T00:00:44.344Z,3.30
2019-01-28T00:03:13.439Z,3.30
2019-01-28T00:05:42.675Z,3.30
2019-01-28T00:08:11.763Z,3.30
2019-01-28T00:10:40.900Z,3.30
2019-01-28T00:13:10.148Z,3.30
2019-01-28T00:15:39.264Z,3.30
2019-01-28T00:18:08.418Z,3.20
2019-01-28T00:20:37.686Z,3.00
2019-01-28T00:23:06.864Z,2.80
2019-01-28T00:25:36.013Z,2.70
2019-01-28T00:28:05.291Z,2.60
2019-01-28T00:30:34.391Z,2.30
2019-01-28T00:33:03.575Z,2.10
2019-01-28T00:35:32.681Z,2.00
2019-01-28T00:38:01.823Z,1.90
2019-01-28T00:40:30.933Z,2.00
2019-01-28T00:43:00.029Z,1.90
2019-01-28T00:45:29.196Z,1.80
2019-01-28T00:47:58.349Z,1.80
2019-01-28T00:50:27.547Z,1.70
2019-01-28T00:52:56.724Z,1.60
2019-01-28T00:55:26.736Z,1.70
2019-01-28T00:57:55.860Z,1.70
2019-01-28T01:00:26.541Z,1.70
2019-01-28T01:02:55.650Z,1.80
2019-01-28T01:05:24.785Z,1.70
2019-01-28T01:07:53.884Z,1.70
2019-01-28T01:10:22.993Z,1.70
2019-01-28T01:12:52.112Z,1.70
2019-01-28T01:15:21.244Z,1.70
2019-01-28T01:17:50.392Z,1.70
2019-01-28T01:20:19.499Z,1.70
2019-01-28T01:22:48.808Z,1.70
2019-01-28T01:25:17.924Z,1.50
2019-01-28T01:27:47.051Z,1.60
2019-01-28T01:30:17.324Z,1.60
2019-01-28T01:32:46.513Z,1.60
2019-01-28T01:35:15.611Z,1.50
2019-01-28T01:37:44.728Z,1.50
2019-01-28T01:40:15.637Z,1.50
2019-01-28T01:42:44.750Z,1.50
2019-01-28T01:45:15.699Z,1.50
2019-01-28T01:47:44.796Z,1.50
2019-01-28T01:50:13.989Z,1.30
2019-01-28T01:52:43.127Z,1.40
2019-01-28T01:55:13.359Z,1.30
2019-01-28T01:57:42.574Z,1.30
2019-01-28T02:00:20.916Z,1.30
2019-01-28T02:02:50.080Z,1.30
2019-01-28T02:05:19.263Z,1.30
2019-01-28T02:07:48.351Z,1.30
2019-01-28T02:10:17.861Z,1.30
2019-01-28T02:12:47.010Z,1.30
2019-01-28T02:15:17.805Z,1.30
2019-01-28T02:17:47.139Z,1.30
2019-01-28T02:20:16.728Z,1.30
2019-01-28T02:22:45.913Z,1.30
2019-01-28T02:25:15.644Z,1.20
2019-01-28T02:27:44.766Z,1.20
2019-01-28T02:30:16.165Z,1.20
2019-01-28T02:32:45.364Z,1.10
2019-01-28T02:35:14.609Z,1.10
2019-01-28T02:37:43.806Z,1.10
2019-01-28T02:40:16.868Z,1.00
2019-01-28T02:42:46.083Z,1.00
2019-01-28T02:45:15.995Z,1.00
2019-01-28T02:47:45.123Z,1.00
2019-01-28T02:50:16.196Z,1.10
2019-01-28T02:52:45.362Z,1.10
2019-01-28T02:55:14.910Z,1.10
2019-01-28T02:57:44.112Z,1.00
2019-01-28T03:00:16.212Z,1.00
2019-01-28T03:02:45.407Z,1.10
2019-01-28T03:05:14.797Z,1.00
2019-01-28T03:07:43.893Z,1.00
2019-01-28T03:10:15.633Z,1.10
2019-01-28T03:12:44.833Z,1.00
2019-01-28T03:15:13.966Z,1.10
2019-01-28T03:17:43.100Z,1.10
2019-01-28T03:20:12.662Z,1.00
2019-01-28T03:22:41.808Z,1.10
2019-01-28T03:25:11.878Z,1.00
2019-01-28T03:27:41.043Z,1.00
2019-01-28T03:30:13.009Z,0.90
2019-01-28T03:32:42.119Z,1.00
2019-01-28T03:35:11.365Z,0.90
2019-01-28T03:37:40.552Z,0.90
2019-01-28T03:40:12.527Z,0.90
2019-01-28T03:42:41.672Z,0.90
2019-01-28T03:45:13.513Z,0.80
2019-01-28T03:47:42.627Z,0.90
2019-01-28T03:50:12.848Z,0.90
2019-01-28T03:52:41.981Z,0.90
2019-01-28T03:55:11.383Z,0.90
2019-01-28T03:57:40.578Z,0.90
2019-01-28T04:00:15.889Z,0.90
2019-01-28T04:02:45.043Z,0.90
2019-01-28T04:05:14.212Z,0.90
2019-01-28T04:07:43.372Z,0.90
2019-01-28T04:10:15.317Z,0.90
2019-01-28T04:12:44.438Z,0.90
2019-01-28T04:15:13.933Z,0.80
2019-01-28T04:17:43.127Z,0.80
2019-01-28T04:20:13.544Z,0.80
2019-01-28T04:22:42.689Z,0.80
2019-01-28T04:25:12.611Z,0.80
2019-01-28T04:27:41.743Z,0.90
2019-01-28T04:30:14.328Z,0.90
2019-01-28T04:32:43.459Z,0.90
2019-01-28T04:35:12.613Z,0.90
2019-01-28T04:37:41.823Z,1.00
2019-01-28T04:40:11.178Z,1.00
2019-01-28T04:42:40.276Z,1.00
2019-01-28T04:45:12.375Z,1.10
2019-01-28T04:47:41.498Z,1.10
2019-01-28T04:50:15.508Z,1.10
2019-01-28T04:52:44.617Z,1.20
2019-01-28T04:55:13.961Z,1.30
2019-01-28T04:57:43.177Z,1.30
2019-01-28T05:00:17.485Z,1.40
2019-01-28T05:02:46.657Z,1.40
2019-01-28T05:05:15.765Z,1.40
2019-01-28T05:07:44.869Z,1.40
2019-01-28T05:10:14.920Z,1.40
2019-01-28T05:12:44.071Z,1.40
2019-01-28T05:15:14.019Z,1.40
2019-01-28T05:17:43.227Z,1.50
2019-01-28T05:20:13.541Z,1.40
2019-01-28T05:22:42.716Z,1.40
2019-01-28T05:25:13.003Z,1.40
2019-01-28T05:27:42.171Z,1.40
2019-01-28T05:30:14.423Z,1.40
2019-01-28T05:32:43.536Z,1.30
2019-01-28T05:35:13.832Z,1.30
2019-01-28T05:37:42.945Z,1.40
2019-01-28T05:40:14.691Z,1.30
2019-01-28T05:42:43.887Z,1.40
2019-01-28T05:45:14.046Z,1.30
2019-01-28T05:47:43.227Z,1.30
2019-01-28T05:50:12.475Z,1.40
2019-01-28T05:52:41.593Z,1.40
2019-01-28T05:55:11.219Z,1.30
2019-01-28T05:57:40.379Z,1.40
2019-01-28T06:00:18.616Z,1.50
2019-01-28T06:02:47.801Z,1.50
2019-01-28T06:05:17.087Z,1.50
2019-01-28T06:07:46.179Z,1.50
2019-01-28T06:10:15.383Z,1.60
2019-01-28T06:12:44.552Z,1.60
2019-01-28T06:15:15.040Z,1.60
2019-01-28T06:17:44.232Z,1.60
2019-01-28T06:20:18.547Z,1.60
2019-01-28T06:22:47.886Z,1.70
2019-01-28T06:25:17.045Z,1.60
2019-01-28T06:27:46.143Z,1.70
2019-01-28T06:30:20.895Z,1.70
2019-01-28T06:32:50.090Z,1.70
2019-01-28T06:35:19.228Z,1.70
2019-01-28T06:37:48.404Z,1.70
2019-01-28T06:40:19.712Z,1.70
2019-01-28T06:42:48.861Z,1.70
2019-01-28T06:45:17.988Z,1.70
2019-01-28T06:47:47.301Z,1.70
2019-01-28T06:50:18.167Z,1.70
2019-01-28T06:52:47.476Z,1.70
2019-01-28T06:55:16.618Z,1.70
2019-01-28T06:57:45.751Z,1.70
2019-01-28T07:00:29.395Z,1.70
2019-01-28T07:02:58.492Z,1.70
2019-01-28T07:05:27.710Z,1.70
2019-01-28T07:07:56.818Z,1.70
2019-01-28T07:10:25.948Z,1.70
2019-01-28T07:12:55.047Z,1.70
2019-01-28T07:15:24.231Z,1.80
2019-01-28T07:17:55.098Z,1.70
2019-01-28T07:20:27.428Z,1.70
2019-01-28T07:22:56.595Z,1.70
2019-01-28T07:25:25.720Z,1.70
2019-01-28T07:27:54.859Z,1.70
2019-01-28T07:30:26.827Z,1.70
2019-01-28T07:32:55.981Z,1.70
2019-01-28T07:35:25.375Z,1.70
2019-01-28T07:37:54.583Z,1.70
2019-01-28T07:40:23.858Z,1.80
2019-01-28T07:42:53.327Z,1.80
2019-01-28T07:45:25.759Z,1.80
2019-01-28T07:48:02.444Z,1.80
2019-01-28T07:50:25.949Z,1.80
2019-01-28T07:52:55.425Z,1.80
2019-01-28T07:55:24.624Z,1.90
2019-01-28T07:57:53.891Z,1.90
2019-01-28T08:00:25.384Z,1.90
2019-01-28T08:02:54.590Z,1.90
2019-01-28T08:05:23.788Z,2.00
2019-01-28T08:07:52.931Z,2.00
2019-01-28T08:10:22.160Z,2.00
2019-01-28T08:12:51.344Z,2.10
2019-01-28T08:15:21.697Z,2.10
2019-01-28T08:17:50.813Z,2.00
2019-01-28T08:20:20.396Z,2.10
2019-01-28T08:22:49.492Z,2.20
2019-01-28T08:25:19.815Z,2.20
2019-01-28T08:27:48.952Z,2.20
2019-01-28T08:30:26.221Z,2.20
2019-01-28T08:32:56.268Z,2.30
2019-01-28T08:35:26.975Z,2.30
2019-01-28T08:37:56.092Z,2.40
2019-01-28T08:40:25.276Z,2.40
2019-01-28T08:42:54.389Z,2.40
2019-01-28T08:45:23.502Z,2.40
2019-01-28T08:47:52.609Z,2.30
2019-01-28T08:50:22.547Z,2.40
2019-01-28T08:52:51.691Z,2.50
2019-01-28T08:55:22.276Z,2.50
2019-01-28T08:57:51.629Z,2.50
2019-01-28T09:00:32.397Z,2.40
2019-01-28T09:03:01.763Z,2.50
2019-01-28T09:05:30.910Z,2.50
2019-01-28T09:08:00.015Z,2.50
2019-01-28T09:10:29.174Z,2.60
2019-01-28T09:12:58.376Z,2.60
2019-01-28T09:15:27.481Z,2.60
2019-01-28T09:17:57.038Z,2.70
2019-01-28T09:20:26.456Z,2.50
2019-01-28T09:22:55.537Z,2.70
2019-01-28T09:25:24.765Z,2.60
2019-01-28T09:27:53.907Z,2.70
2019-01-28T09:30:25.703Z,2.60
2019-01-28T09:32:54.816Z,2.60
2019-01-28T09:35:23.913Z,2.60
2019-01-28T09:37:55.105Z,2.70
2019-01-28T09:40:25.465Z,2.60
2019-01-28T09:42:54.608Z,2.70
2019-01-28T09:45:26.124Z,2.60
2019-01-28T09:47:55.347Z,2.60
2019-01-28T09:50:24.481Z,2.80
2019-01-28T09:52:53.964Z,2.90
2019-01-28T09:55:23.122Z,2.90
2019-01-28T09:57:52.328Z,3.00
2019-01-28T10:00:27.464Z,3.20
2019-01-28T10:02:56.648Z,3.30
2019-01-28T10:05:25.760Z,3.20
2019-01-28T10:07:54.895Z,3.60
2019-01-28T10:10:23.984Z,3.40
2019-01-28T10:12:53.283Z,3.80
2019-01-28T10:15:22.556Z,3.90
2019-01-28T10:17:51.639Z,4.30
2019-01-28T10:20:26.463Z,4.40
2019-01-28T10:22:55.655Z,4.30
2019-01-28T10:25:24.747Z,4.20
2019-01-28T10:27:53.895Z,4.00
2019-01-28T10:30:26.069Z,3.70
2019-01-28T10:32:55.208Z,4.20
2019-01-28T10:35:24.824Z,4.50
2019-01-28T10:37:57.285Z,4.40
2019-01-28T10:40:28.202Z,4.80
2019-01-28T10:42:57.641Z,5.60
2019-01-28T10:45:26.741Z,6.30
2019-01-28T10:48:00.506Z,5.80
2019-01-28T10:50:36.443Z,5.50
2019-01-28T10:53:05.721Z,5.20
2019-01-28T10:55:34.942Z,4.80
2019-01-28T10:58:04.072Z,5.90
2019-01-28T11:00:35.734Z,5.10
2019-01-28T11:03:05.656Z,5.20
2019-01-28T11:05:34.779Z,4.70
2019-01-28T11:08:05.520Z,4.20
2019-01-28T11:10:34.720Z,4.70
2019-01-28T11:13:05.155Z,4.60
2019-01-28T11:15:34.638Z,4.60
2019-01-28T11:18:05.151Z,4.50
2019-01-28T11:20:34.430Z,4.00
2019-01-28T11:23:03.765Z,4.30
2019-01-28T11:25:32.988Z,5.30
2019-01-28T11:28:02.395Z,5.30
2019-01-28T11:31:02.080Z,5.80
2019-01-28T11:33:31.469Z,6.70
2019-01-28T11:36:05.439Z,7.20
2019-01-28T11:38:31.677Z,8.70
2019-01-28T11:41:00.898Z,7.90
2019-01-28T11:43:30.124Z,7.10
2019-01-28T11:46:03.746Z,7.00
2019-01-28T11:48:33.115Z,7.60
2019-01-28T11:51:02.412Z,8.80
2019-01-28T11:53:31.629Z,8.80
2019-01-28T11:56:00.883Z,8.20
2019-01-28T11:58:30.133Z,9.40
2019-01-28T12:01:14.483Z,9.30
2019-01-28T12:03:43.637Z,9.80
2019-01-28T12:06:12.753Z,9.10
2019-01-28T12:08:41.997Z,9.00
2019-01-28T12:11:11.185Z,10.30
2019-01-28T12:13:40.402Z,10.10
2019-01-28T12:16:12.640Z,10.60
2019-01-28T12:18:41.868Z,11.40
2019-01-28T12:21:11.173Z,10.00
2019-01-28T12:23:40.404Z,9.80
2019-01-28T12:26:09.568Z,9.20
2019-01-28T12:28:38.828Z,9.40
2019-01-28T12:31:08.065Z,8.60
2019-01-28T12:33:37.171Z,7.70
2019-01-28T12:36:06.305Z,7.40
2019-01-28T12:38:35.401Z,7.90
2019-01-28T12:41:04.531Z,8.40
2019-01-28T12:43:33.704Z,8.90
2019-01-28T12:46:03.414Z,8.50
2019-01-28T12:48:32.683Z,7.80
2019-01-28T12:51:01.849Z,8.00
2019-01-28T12:53:30.963Z,7.80
2019-01-28T12:56:00.169Z,7.80
2019-01-28T12:58:29.291Z,7.40
2019-01-28T13:01:01.895Z,7.80
2019-01-28T13:03:31.253Z,7.60
2019-01-28T13:06:00.433Z,8.00
2019-01-28T13:08:29.549Z,7.70
2019-01-28T13:10:58.664Z,7.30
2019-01-28T13:13:27.744Z,7.60
2019-01-28T13:15:56.844Z,8.20
2019-01-28T13:18:25.950Z,7.20
2019-01-28T13:20:55.088Z,6.80
2019-01-28T13:23:24.268Z,7.00
2019-01-28T13:25:53.338Z,6.50
2019-01-28T13:28:22.468Z,6.30
2019-01-28T13:30:51.603Z,6.80
2019-01-28T13:33:20.689Z,7.60
2019-01-28T13:35:49.834Z,7.40
2019-01-28T13:38:18.956Z,7.20
2019-01-28T13:40:48.058Z,7.60
2019-01-28T13:43:17.216Z,6.50
2019-01-28T13:45:46.387Z,7.80
2019-01-28T13:48:15.683Z,7.00
2019-01-28T13:50:44.812Z,7.20
2019-01-28T13:53:13.916Z,5.50
2019-01-28T13:55:43.040Z,6.40
2019-01-28T13:58:12.143Z,5.60
2019-01-28T14:00:41.311Z,5.10
2019-01-28T14:03:10.455Z,5.10
2019-01-28T14:05:39.567Z,4.50
2019-01-28T14:08:08.705Z,4.60
2019-01-28T14:10:37.847Z,4.50
2019-01-28T14:13:07.056Z,4.20
2019-01-28T14:15:38.255Z,4.30
2019-01-28T14:18:09.280Z,4.00
2019-01-28T14:20:38.553Z,4.20
2019-01-28T14:23:07.869Z,4.00
2019-01-28T14:25:37.040Z,4.20
2019-01-28T14:28:08.418Z,3.90
2019-01-28T14:30:45.252Z,3.90
2019-01-28T14:33:14.358Z,3.90
2019-01-28T14:35:43.490Z,3.90
2019-01-28T14:38:13.710Z,3.60
2019-01-28T14:40:45.299Z,3.40
2019-01-28T14:43:14.425Z,3.00
2019-01-28T14:45:43.537Z,3.20
2019-01-28T14:48:13.537Z,3.30
2019-01-28T14:50:42.823Z,3.30
2019-01-28T14:53:12.037Z,3.00
2019-01-28T14:55:41.270Z,3.10
2019-01-28T14:58:16.491Z,3.20
2019-01-28T15:00:44.864Z,3.10
2019-01-28T15:03:14.247Z,3.00
2019-01-28T15:05:43.386Z,2.90
2019-01-28T15:08:12.326Z,3.00
2019-01-28T15:10:41.756Z,2.90
2019-01-28T15:13:10.965Z,3.00
2019-01-28T15:15:40.841Z,2.90
2019-01-28T15:18:12.654Z,2.90
2019-01-28T15:20:41.896Z,2.90
2019-01-28T15:23:11.173Z,2.90
2019-01-28T15:25:40.442Z,2.80
2019-01-28T15:28:09.753Z,2.80
2019-01-28T15:30:39.204Z,2.70
2019-01-28T15:33:08.538Z,2.60
2019-01-28T15:35:37.769Z,2.60
2019-01-28T15:38:06.877Z,2.70
2019-01-28T15:40:36.701Z,2.70
2019-01-28T15:43:06.328Z,2.60
2019-01-28T15:45:38.074Z,2.60
2019-01-28T15:48:07.796Z,2.50
2019-01-28T15:50:37.045Z,2.50
2019-01-28T15:53:07.122Z,2.40
2019-01-28T15:55:38.069Z,2.40
2019-01-28T15:58:08.191Z,2.40
2019-01-28T16:00:37.435Z,2.50
2019-01-28T16:03:08.444Z,2.30
2019-01-28T16:05:37.731Z,2.20
2019-01-28T16:08:07.546Z,2.30
2019-01-28T16:10:36.737Z,2.30
2019-01-28T16:13:05.901Z,2.30
2019-01-28T16:15:37.383Z,2.20
2019-01-28T16:18:08.782Z,2.20
2019-01-28T16:20:37.574Z,2.30
2019-01-28T16:23:07.164Z,2.20
2019-01-28T16:25:36.255Z,2.10
2019-01-28T16:28:05.511Z,2.20
2019-01-28T16:30:34.722Z,2.10
2019-01-28T16:33:03.857Z,2.10
2019-01-28T16:35:33.015Z,2.10
2019-01-28T16:38:02.114Z,2.10
2019-01-28T16:40:31.321Z,2.10
2019-01-28T16:43:00.481Z,2.10
2019-01-28T16:45:29.560Z,2.10
2019-01-28T16:47:58.771Z,2.10
2019-01-28T16:50:29.735Z,2.10
2019-01-28T16:52:58.957Z,2.10
2019-01-28T16:55:28.118Z,2.10
2019-01-28T16:57:57.839Z,2.10
2019-01-28T17:00:31.962Z,2.10
2019-01-28T17:03:01.164Z,2.10
2019-01-28T17:05:30.259Z,2.00
2019-01-28T17:08:01.592Z,2.10
2019-01-28T17:10:30.694Z,2.10
2019-01-28T17:12:59.890Z,2.10
2019-01-28T17:15:29.044Z,2.10
2019-01-28T17:17:58.152Z,2.00
2019-01-28T17:20:35.276Z,2.00
2019-01-28T17:22:59.558Z,2.10
2019-01-28T17:25:31.170Z,2.00
2019-01-28T17:28:00.284Z,2.00
2019-01-28T17:30:36.969Z,2.00
2019-01-28T17:33:06.999Z,2.00
2019-01-28T17:35:36.408Z,2.00
2019-01-28T17:38:07.360Z,2.00
2019-01-28T17:40:36.755Z,2.00
2019-01-28T17:43:06.953Z,2.00
2019-01-28T17:45:36.067Z,1.90
2019-01-28T17:48:06.713Z,2.00
2019-01-28T17:50:43.070Z,2.00
2019-01-28T17:53:06.892Z,2.00
2019-01-28T17:55:36.328Z,2.00
2019-01-28T17:58:07.936Z,2.00
2019-01-28T18:00:41.329Z,1.90
2019-01-28T18:03:10.463Z,2.00
2019-01-28T18:05:39.595Z,1.90
2019-01-28T18:08:09.379Z,1.90
2019-01-28T18:10:38.565Z,1.90
2019-01-28T18:13:07.891Z,1.90
2019-01-28T18:15:37.052Z,1.90
2019-01-28T18:18:07.080Z,1.90
2019-01-28T18:20:36.720Z,2.00
2019-01-28T18:23:06.347Z,2.00
2019-01-28T18:25:36.120Z,1.90
2019-01-28T18:28:05.982Z,1.90
2019-01-28T18:30:41.613Z,1.90
2019-01-28T18:33:10.742Z,1.80
2019-01-28T18:35:39.860Z,1.80
2019-01-28T18:38:08.982Z,1.70
2019-01-28T18:40:39.409Z,1.80
2019-01-28T18:43:09.031Z,1.80
2019-01-28T18:45:38.215Z,1.80
2019-01-28T18:48:08.636Z,1.80
2019-01-28T18:50:37.790Z,1.80
2019-01-28T18:53:07.744Z,1.80
2019-01-28T18:55:36.897Z,1.70
2019-01-28T18:58:06.092Z,1.80
2019-01-28T19:00:35.370Z,1.80
2019-01-28T19:03:04.509Z,1.80
2019-01-28T19:05:53.113Z,1.70
2019-01-28T19:08:44.363Z,1.70
2019-01-28T19:11:24.669Z,1.70
2019-01-28T19:14:01.494Z,1.70
2019-01-28T19:16:38.912Z,1.70
2019-01-28T19:19:18.719Z,1.70
2019-01-28T19:21:51.419Z,1.60
2019-01-28T19:24:20.600Z,1.50
2019-01-28T19:26:49.681Z,1.50
2019-01-28T19:29:18.808Z,1.50
2019-01-28T19:31:47.921Z,1.40
2019-01-28T19:34:17.138Z,1.40
2019-01-28T19:36:46.324Z,1.20
2019-01-28T19:39:15.548Z,1.30
2019-01-28T19:41:44.726Z,1.40
2019-01-28T19:44:13.876Z,1.40
2019-01-28T19:46:42.977Z,1.40
2019-01-28T19:49:12.208Z,1.40
2019-01-28T19:51:41.365Z,1.50
2019-01-28T19:54:10.535Z,1.40
2019-01-28T19:56:39.666Z,1.40
2019-01-28T19:59:08.844Z,1.40
2019-01-28T20:01:37.943Z,1.40
2019-01-28T20:04:07.055Z,1.40
2019-01-28T20:06:36.188Z,1.30
2019-01-28T20:09:07.912Z,1.40
2019-01-28T20:11:37.052Z,1.30
2019-01-28T20:14:06.203Z,1.30
2019-01-28T20:16:35.340Z,1.30
2019-01-28T20:19:04.523Z,1.30
2019-01-28T20:21:33.654Z,1.30
2019-01-28T20:24:02.822Z,1.20
2019-01-28T20:26:31.919Z,1.10
2019-01-28T20:29:01.038Z,1.10
2019-01-28T20:31:30.198Z,1.10
2019-01-28T20:33:59.295Z,1.00
2019-01-28T20:36:28.439Z,1.00
2019-01-28T20:38:57.628Z,0.90
2019-01-28T20:41:26.737Z,1.00
2019-01-28T20:43:55.863Z,0.80
2019-01-28T20:46:24.977Z,0.80
2019-01-28T20:48:54.086Z,0.90
2019-01-28T20:51:23.257Z,0.90
2019-01-28T20:53:52.401Z,0.90
2019-01-28T20:56:21.524Z,0.80
2019-01-28T20:58:50.828Z,0.70
2019-01-28T21:01:19.991Z,0.80
2019-01-28T21:03:49.091Z,0.80
2019-01-28T21:06:18.345Z,0.80
2019-01-28T21:08:47.703Z,0.80
2019-01-28T21:11:16.928Z,0.70
2019-01-28T21:13:46.157Z,0.70
2019-01-28T21:16:15.278Z,0.80
2019-01-28T21:18:44.455Z,0.80
2019-01-28T21:21:13.630Z,0.70
2019-01-28T21:23:42.768Z,0.60
2019-01-28T21:26:11.897Z,0.60
2019-01-28T21:28:40.967Z,0.60
2019-01-28T21:31:10.087Z,0.50
2019-01-28T21:33:39.280Z,0.50
2019-01-28T21:36:33.131Z,0.50
2019-01-28T21:39:02.571Z,0.60
2019-01-28T21:41:31.692Z,0.60
2019-01-28T21:44:00.787Z,0.60
2019-01-28T21:46:29.976Z,0.60
2019-01-28T21:48:59.080Z,0.60
2019-01-28T21:51:28.231Z,0.60
2019-01-28T21:53:57.330Z,0.70
2019-01-28T21:56:26.412Z,0.60
2019-01-28T21:58:55.520Z,0.70
2019-01-28T22:01:24.629Z,0.60
2019-01-28T22:03:53.759Z,0.70
2019-01-28T22:06:22.908Z,0.50
2019-01-28T22:08:51.995Z,0.50
2019-01-28T22:11:21.130Z,0.50
2019-01-28T22:13:50.330Z,0.40
2019-01-28T22:16:19.608Z,0.50
2019-01-28T22:18:48.808Z,0.50
2019-01-28T22:21:18.516Z,0.50
2019-01-28T22:23:47.644Z,0.50
2019-01-28T22:26:16.948Z,0.50
2019-01-28T22:28:46.070Z,0.50
2019-01-28T22:31:15.170Z,0.40
2019-01-28T22:33:44.268Z,0.40
2019-01-28T22:36:13.363Z,0.30
2019-01-28T22:38:43.261Z,0.30
2019-01-28T22:41:12.968Z,0.30
2019-01-28T22:43:42.084Z,0.20
2019-01-28T22:46:11.225Z,0.30
2019-01-28T22:48:40.351Z,0.30
2019-01-28T22:51:09.455Z,0.30
2019-01-28T22:53:38.588Z,0.30
2019-01-28T22:56:07.792Z,0.30
2019-01-28T22:58:36.897Z,0.30
2019-01-28T23:01:25.180Z,0.30
2019-01-28T23:03:54.325Z,0.20
2019-01-28T23:06:23.471Z,0.20
2019-01-28T23:08:52.612Z,0.20
2019-01-28T23:11:21.783Z,0.40
2019-01-28T23:13:50.912Z,0.30
2019-01-28T23:16:20.007Z,0.30
2019-01-28T23:18:49.243Z,0.30
2019-01-28T23:21:18.418Z,0.30
2019-01-28T23:23:47.478Z,0.30
2019-01-28T23:26:16.620Z,0.30
2019-01-28T23:28:45.713Z,0.30
2019-01-28T23:31:14.829Z,0.40
2019-01-28T23:33:43.984Z,0.40
2019-01-28T23:36:13.131Z,0.50
2019-01-28T23:38:42.275Z,0.50
2019-01-28T23:41:11.362Z,0.50
2019-01-28T23:43:40.463Z,0.50
2019-01-28T23:46:09.688Z,0.50
2019-01-28T23:48:38.835Z,0.50
2019-01-28T23:51:07.959Z,0.50
2019-01-28T23:53:37.092Z,0.50
2019-01-28T23:56:06.199Z,0.60
2019-01-28T23:58:35.316Z,0.60
